Rick Husband Amarillo International Airport Amarillo US
ICAO: KAMA
IATA: AMA
Category: Large
Scheduled Services: Yes

Elevation: 3607 ft
TransAlt. 18000 ft.

Airport Communications:
APP/DEP:121.15
ATIS:118.85
CLNC DEL:121.65
CTAF:118.3
GND:121.9
FORT WORTH RDO:122.65
TWR:118.3
UNICOM:122.95

KAMA Zoom In..

Runways:

(A) RW 04 length 13502 ft width 200 ft
ILS 110.30 / hdg 38

(B) RW 13 length 7901 ft width 150 ft
---- / hdg 129

(C) RW 22 length 13502 ft width 200 ft
---- / hdg 218

(D) RW 31 length 7901 ft width 150 ft
---- / hdg 309

Location; KAMA
Day. 20 / Time. 02.30 Zulu
* Altimeter: 30.03
* Temperature: 28° c. 82.4°f.
* Wind from: 020° Speed 20 kn with Gusts up to 33 kn.
Dewpoint: 12° c.
Visibility: 10 Statute Miles.
Clouds: Clear (automated report).

KAMA 200230Z 02020G33KT 10SM CLR 28/12 A3003 RMK AO2 PK WND 02039/0217 T02830122


Wind From 020°
Speed 20 kn.

 
 
jpsmedia.com for Web Design worldairports.se 2018   terms of use